Time;durP1;ratioP1;P1;durP2;ratioP2;P2;SDS_P1;SDS_P2;PMS_P1;PMS_P2;Temp;Humidity;BMP_temperature;BMP_pressure;BME280_temperature;BME280_humidity;BME280_pressure;Samples;Min_cycle;Max_cycle;Signal;HPM_P1;HPM_P2
2024/02/19 00:00:12;;;;;;;22.50;3.33;;;;;;;;;;5014677;28;20060;-66
2024/02/19 00:02:38;;;;;;;14.73;1.88;;;;;;;;;;5018169;28;20045;-65
2024/02/19 00:05:06;;;;;;;16.65;1.92;;;;;;;;;;5016790;28;20041;-66
2024/02/19 00:07:32;;;;;;;15.23;1.75;;;;;;;;;;5017886;28;20050;-66
2024/02/19 00:09:58;;;;;;;17.38;1.90;;;;;;;;;;5035353;28;20054;-65
2024/02/19 00:12:24;;;;;;;12.85;1.10;;;;;;;;;;5014106;28;20052;-65
2024/02/19 00:14:51;;;;;;;10.57;1.58;;;;;;;;;;5017508;28;20473;-65
2024/02/19 00:17:17;;;;;;;11.38;1.20;;;;;;;;;;5017504;28;20042;-66
2024/02/19 00:19:43;;;;;;;10.15;1.70;;;;;;;;;;5013269;28;20456;-65
2024/02/19 00:22:09;;;;;;;19.70;2.10;;;;;;;;;;5012533;28;20046;-65
2024/02/19 00:24:37;;;;;;;17.73;3.03;;;;;;;;;;5014983;28;20042;-66
2024/02/19 00:27:03;;;;;;;21.55;2.42;;;;;;;;;;5017753;28;20174;-66
2024/02/19 00:29:29;;;;;;;18.80;2.90;;;;;;;;;;5014578;28;20071;-65
2024/02/19 00:31:55;;;;;;;20.67;3.05;;;;;;;;;;5020294;28;20045;-66
2024/02/19 00:34:21;;;;;;;30.27;3.15;;;;;;;;;;5017808;28;20046;-65
2024/02/19 00:36:47;;;;;;;25.13;2.85;;;;;;;;;;5021032;28;20085;-66
2024/02/19 00:39:14;;;;;;;21.00;2.53;;;;;;;;;;5019896;28;20030;-65
2024/02/19 00:41:40;;;;;;;14.65;2.80;;;;;;;;;;5020286;28;20038;-66
2024/02/19 00:44:07;;;;;;;19.63;3.55;;;;;;;;;;5036901;28;20061;-65
2024/02/19 00:46:33;;;;;;;19.25;2.58;;;;;;;;;;5012202;28;20041;-65
2024/02/19 00:48:59;;;;;;;17.55;2.58;;;;;;;;;;5023222;28;20045;-65
2024/02/19 00:51:25;;;;;;;15.60;2.83;;;;;;;;;;5028399;28;20106;-65
2024/02/19 00:53:51;;;;;;;20.75;2.40;;;;;;;;;;5026743;28;20436;-66
2024/02/19 00:56:17;;;;;;;14.93;3.08;;;;;;;;;;5023203;28;20045;-66
2024/02/19 00:58:44;;;;;;;18.75;2.55;;;;;;;;;;5016563;28;20520;-65
2024/02/19 01:01:10;;;;;;;23.73;2.80;;;;;;;;;;5015190;28;20168;-66
2024/02/19 01:03:36;;;;;;;20.83;2.42;;;;;;;;;;5019369;28;20116;-66
2024/02/19 01:06:02;;;;;;;20.13;2.33;;;;;;;;;;5020464;28;20044;-66
2024/02/19 01:08:28;;;;;;;28.40;2.75;;;;;;;;;;5020875;28;20106;-66
2024/02/19 01:10:55;;;;;;;30.17;3.25;;;;;;;;;;5022274;28;20038;-66
2024/02/19 01:13:21;;;;;;;27.80;2.97;;;;;;;;;;5019175;28;20148;-66
2024/02/19 01:15:47;;;;;;;28.13;4.05;;;;;;;;;;5013261;28;20053;-66
2024/02/19 01:18:15;;;;;;;25.13;3.40;;;;;;;;;;5015042;28;20037;-65
2024/02/19 01:20:41;;;;;;;27.33;3.60;;;;;;;;;;5018996;28;20464;-66
2024/02/19 01:23:07;;;;;;;31.65;3.10;;;;;;;;;;5018540;28;20175;-66
2024/02/19 01:25:34;;;;;;;28.92;3.78;;;;;;;;;;5020763;28;20137;-66
2024/02/19 01:28:00;;;;;;;22.00;3.65;;;;;;;;;;5023368;28;20051;-65
2024/02/19 01:30:26;;;;;;;31.20;3.20;;;;;;;;;;5019787;28;20477;-65
2024/02/19 01:32:52;;;;;;;33.50;4.28;;;;;;;;;;5017415;28;20052;-66
2024/02/19 01:35:19;;;;;;;28.80;2.97;;;;;;;;;;5017586;28;20478;-65
2024/02/19 01:37:46;;;;;;;44.72;3.47;;;;;;;;;;5018098;28;20422;-65
2024/02/19 01:40:12;;;;;;;42.83;4.22;;;;;;;;;;5022680;28;20405;-66
2024/02/19 01:42:38;;;;;;;24.17;2.85;;;;;;;;;;5016165;28;20053;-66
2024/02/19 01:45:07;;;;;;;33.28;3.70;;;;;;;;;;5016382;28;20454;-66
2024/02/19 01:47:34;;;;;;;33.75;4.25;;;;;;;;;;5024314;28;20041;-66
2024/02/19 01:50:00;;;;;;;22.55;3.03;;;;;;;;;;5034505;28;20485;-66
2024/02/19 01:52:26;;;;;;;24.75;3.85;;;;;;;;;;5032759;28;20065;-65
2024/02/19 01:54:53;;;;;;;26.20;2.90;;;;;;;;;;5025263;28;20048;-66
2024/02/19 01:57:20;;;;;;;27.45;3.90;;;;;;;;;;5022191;28;20052;-65
2024/02/19 01:59:47;;;;;;;23.15;2.72;;;;;;;;;;5021664;28;20033;-66
2024/02/19 02:02:13;;;;;;;27.60;3.00;;;;;;;;;;5025799;28;20041;-66
2024/02/19 02:04:40;;;;;;;22.75;2.83;;;;;;;;;;5021177;28;20378;-66
2024/02/19 02:07:06;;;;;;;24.20;3.13;;;;;;;;;;5024385;28;20552;-65
2024/02/19 02:09:32;;;;;;;26.50;2.63;;;;;;;;;;5026649;28;20095;-65
2024/02/19 02:11:58;;;;;;;30.25;2.95;;;;;;;;;;5027020;28;20053;-66
2024/02/19 02:14:25;;;;;;;29.92;4.40;;;;;;;;;;5023017;28;20037;-66
2024/02/19 02:16:51;;;;;;;19.92;3.53;;;;;;;;;;5030186;28;20128;-65
2024/02/19 02:19:17;;;;;;;26.52;2.67;;;;;;;;;;5024985;28;20064;-66
2024/02/19 02:21:44;;;;;;;24.70;3.17;;;;;;;;;;5017137;28;20049;-66
2024/02/19 02:24:10;;;;;;;25.88;3.97;;;;;;;;;;5023078;28;20045;-65
2024/02/19 02:26:41;;;;;;;27.85;2.97;;;;;;;;;;5021654;28;20049;-65
2024/02/19 02:29:07;;;;;;;29.88;3.60;;;;;;;;;;5025942;28;20052;-66
2024/02/19 02:31:34;;;;;;;21.65;2.88;;;;;;;;;;5027300;28;20097;-66
2024/02/19 02:34:00;;;;;;;36.88;3.88;;;;;;;;;;5025031;28;20044;-66
2024/02/19 02:36:26;;;;;;;28.60;3.85;;;;;;;;;;5027918;28;20041;-66
2024/02/19 02:38:52;;;;;;;30.38;4.30;;;;;;;;;;5029950;28;20044;-66
2024/02/19 02:41:18;;;;;;;30.60;4.05;;;;;;;;;;5021434;28;20440;-66
2024/02/19 02:43:45;;;;;;;26.52;4.05;;;;;;;;;;5021637;28;20588;-65
2024/02/19 02:46:11;;;;;;;35.90;3.92;;;;;;;;;;5021503;28;20048;-65
2024/02/19 02:48:37;;;;;;;44.10;6.63;;;;;;;;;;5022596;28;20045;-66
2024/02/19 02:51:03;;;;;;;35.75;3.92;;;;;;;;;;5023494;28;20486;-66
2024/02/19 02:53:29;;;;;;;42.47;4.15;;;;;;;;;;5021321;28;20046;-66
2024/02/19 02:55:55;;;;;;;38.88;5.45;;;;;;;;;;5020319;28;20061;-66
2024/02/19 02:58:22;;;;;;;34.65;5.95;;;;;;;;;;5027619;28;20132;-66
2024/02/19 03:00:48;;;;;;;43.45;7.47;;;;;;;;;;5023518;28;20492;-65
2024/02/19 03:03:14;;;;;;;40.22;6.63;;;;;;;;;;5023736;28;20073;-66
2024/02/19 03:05:42;;;;;;;51.28;6.00;;;;;;;;;;5021235;28;20049;-66
2024/02/19 03:08:08;;;;;;;35.28;4.32;;;;;;;;;;5021888;28;20373;-65
2024/02/19 03:10:34;;;;;;;32.72;4.45;;;;;;;;;;5017517;28;20046;-66
2024/02/19 03:13:00;;;;;;;48.03;5.63;;;;;;;;;;5018973;28;20054;-66
2024/02/19 03:15:27;;;;;;;38.45;4.30;;;;;;;;;;5017326;28;20100;-66
2024/02/19 03:17:53;;;;;;;39.20;4.55;;;;;;;;;;5014753;28;20060;-65
2024/02/19 03:20:23;;;;;;;37.92;6.72;;;;;;;;;;5016676;28;20096;-66
2024/02/19 03:22:50;;;;;;;38.65;5.18;;;;;;;;;;5015784;28;20057;-66
2024/02/19 03:25:16;;;;;;;39.58;5.78;;;;;;;;;;5014748;28;20148;-66
2024/02/19 03:27:42;;;;;;;34.00;4.85;;;;;;;;;;5014423;28;20065;-66
2024/02/19 03:30:09;;;;;;;39.53;4.45;;;;;;;;;;5018995;28;20068;-66
2024/02/19 03:32:35;;;;;;;36.05;5.70;;;;;;;;;;5018171;28;20465;-66
2024/02/19 03:35:03;;;;;;;37.55;4.45;;;;;;;;;;5017954;28;20134;-66
2024/02/19 03:37:29;;;;;;;36.33;4.53;;;;;;;;;;5022897;28;20131;-66
2024/02/19 03:39:55;;;;;;;44.95;5.50;;;;;;;;;;5022854;28;20427;-66
2024/02/19 03:42:21;;;;;;;45.40;7.07;;;;;;;;;;5020184;28;20041;-66
2024/02/19 03:44:48;;;;;;;31.05;4.43;;;;;;;;;;5014955;28;20094;-66
2024/02/19 03:47:14;;;;;;;42.78;5.47;;;;;;;;;;5016905;28;20068;-65
2024/02/19 03:49:40;;;;;;;42.05;4.93;;;;;;;;;;5022101;28;20045;-66
2024/02/19 03:52:06;;;;;;;47.45;5.20;;;;;;;;;;5017941;28;20436;-66
2024/02/19 03:54:32;;;;;;;41.40;6.68;;;;;;;;;;5039475;28;20045;-66
2024/02/19 03:56:59;;;;;;;34.95;4.80;;;;;;;;;;5039595;28;20072;-66
2024/02/19 03:59:25;;;;;;;32.83;4.43;;;;;;;;;;5036511;28;20056;-66
2024/02/19 04:01:51;;;;;;;41.22;4.40;;;;;;;;;;5018615;28;20063;-66
2024/02/19 04:04:18;;;;;;;37.40;6.57;;;;;;;;;;5023500;28;20033;-66
2024/02/19 04:06:44;;;;;;;48.10;7.90;;;;;;;;;;5042104;28;20091;-66
2024/02/19 04:09:11;;;;;;;29.83;4.90;;;;;;;;;;5042479;28;20076;-66
2024/02/19 04:11:38;;;;;;;45.38;5.30;;;;;;;;;;5040608;28;20103;-65
2024/02/19 04:14:04;;;;;;;45.33;6.47;;;;;;;;;;5038853;28;20037;-66
2024/02/19 04:16:30;;;;;;;40.72;7.97;;;;;;;;;;5021521;28;20049;-66
2024/02/19 04:18:56;;;;;;;39.85;5.63;;;;;;;;;;5040218;28;20441;-66
2024/02/19 04:21:22;;;;;;;50.03;8.45;;;;;;;;;;5023865;28;20159;-66
2024/02/19 04:23:49;;;;;;;39.47;5.55;;;;;;;;;;5023373;28;20045;-66
2024/02/19 04:26:15;;;;;;;30.75;6.50;;;;;;;;;;5041767;28;20041;-66
2024/02/19 04:28:41;;;;;;;42.90;7.07;;;;;;;;;;5018088;28;20057;-66
2024/02/19 04:31:07;;;;;;;43.30;6.20;;;;;;;;;;5021574;28;20064;-66
2024/02/19 04:33:33;;;;;;;37.45;7.03;;;;;;;;;;5016426;28;20470;-66
2024/02/19 04:35:59;;;;;;;34.00;4.95;;;;;;;;;;5020567;28;20802;-66
2024/02/19 04:38:26;;;;;;;46.03;6.60;;;;;;;;;;5020315;28;20037;-65
2024/02/19 04:40:52;;;;;;;48.80;6.18;;;;;;;;;;5019948;28;20150;-66
2024/02/19 04:43:18;;;;;;;40.55;7.22;;;;;;;;;;5021465;28;20488;-66
2024/02/19 04:45:44;;;;;;;37.83;6.57;;;;;;;;;;5021832;28;20159;-66
2024/02/19 04:48:10;;;;;;;39.35;5.15;;;;;;;;;;5021045;28;20849;-66
2024/02/19 04:50:37;;;;;;;40.78;5.45;;;;;;;;;;5023313;28;20045;-66
2024/02/19 04:53:03;;;;;;;37.15;5.28;;;;;;;;;;5018589;28;20083;-66
2024/02/19 04:55:29;;;;;;;37.80;5.80;;;;;;;;;;5017733;28;20131;-66
2024/02/19 04:57:55;;;;;;;45.90;6.30;;;;;;;;;;5015144;28;20084;-66
2024/02/19 05:00:22;;;;;;;34.15;5.10;;;;;;;;;;5021061;28;20072;-66
2024/02/19 05:02:48;;;;;;;36.08;5.47;;;;;;;;;;5018527;28;20052;-65
2024/02/19 05:05:14;;;;;;;45.30;5.65;;;;;;;;;;5019496;28;20038;-66
2024/02/19 05:07:40;;;;;;;41.63;5.47;;;;;;;;;;5019609;28;20422;-65
2024/02/19 05:10:07;;;;;;;53.63;5.85;;;;;;;;;;5018142;28;20068;-66
2024/02/19 05:12:33;;;;;;;56.83;7.85;;;;;;;;;;5021237;28;20140;-66
2024/02/19 05:14:59;;;;;;;42.17;5.50;;;;;;;;;;5019735;28;20060;-66
2024/02/19 05:17:25;;;;;;;50.88;8.43;;;;;;;;;;5019218;28;20577;-66
2024/02/19 05:19:52;;;;;;;58.38;8.00;;;;;;;;;;5027744;28;20448;-66
2024/02/19 05:22:18;;;;;;;43.30;7.30;;;;;;;;;;5018557;28;20073;-66
2024/02/19 05:24:46;;;;;;;43.28;6.20;;;;;;;;;;5019098;28;20045;-66
2024/02/19 05:27:13;;;;;;;35.28;6.05;;;;;;;;;;5018894;28;20084;-66
2024/02/19 05:29:39;;;;;;;43.88;6.85;;;;;;;;;;5021492;28;20052;-66
2024/02/19 05:32:05;;;;;;;42.88;6.78;;;;;;;;;;5017537;28;20052;-66
2024/02/19 05:34:31;;;;;;;50.28;5.78;;;;;;;;;;5014113;28;20059;-66
2024/02/19 05:36:57;;;;;;;36.67;5.57;;;;;;;;;;5017886;28;20048;-66
2024/02/19 05:39:24;;;;;;;40.13;6.40;;;;;;;;;;5016374;28;20036;-66
2024/02/19 05:41:50;;;;;;;53.78;7.53;;;;;;;;;;5015825;28;20038;-66
2024/02/19 05:44:16;;;;;;;39.38;5.75;;;;;;;;;;5018657;28;20041;-66
2024/02/19 05:46:43;;;;;;;42.67;5.53;;;;;;;;;;5019544;28;20087;-66
2024/02/19 05:49:10;;;;;;;35.63;5.38;;;;;;;;;;5019830;28;20049;-66
2024/02/19 05:51:36;;;;;;;39.00;6.72;;;;;;;;;;5020251;28;21325;-66
2024/02/19 05:54:02;;;;;;;31.95;5.45;;;;;;;;;;5018690;28;20084;-66
2024/02/19 05:56:29;;;;;;;42.50;6.00;;;;;;;;;;5019740;28;20068;-66
2024/02/19 05:58:55;;;;;;;43.08;6.63;;;;;;;;;;5018031;28;20053;-65
2024/02/19 06:01:21;;;;;;;43.13;6.47;;;;;;;;;;5020634;28;20041;-66
2024/02/19 06:03:48;;;;;;;46.20;8.88;;;;;;;;;;5014221;28;20132;-66
2024/02/19 06:06:14;;;;;;;41.22;6.90;;;;;;;;;;5017959;28;20477;-66
2024/02/19 06:08:40;;;;;;;35.55;6.07;;;;;;;;;;5021152;28;20056;-66
2024/02/19 06:11:06;;;;;;;35.22;6.07;;;;;;;;;;5016056;28;20501;-66
2024/02/19 06:13:32;;;;;;;53.92;9.38;;;;;;;;;;5020162;28;20132;-66
2024/02/19 06:15:59;;;;;;;38.42;6.32;;;;;;;;;;5016796;28;20037;-66
2024/02/19 06:18:25;;;;;;;41.67;7.50;;;;;;;;;;5015828;28;20084;-66
2024/02/19 06:20:51;;;;;;;39.50;5.57;;;;;;;;;;5031178;28;20038;-66
2024/02/19 06:23:18;;;;;;;49.55;7.53;;;;;;;;;;5016741;28;20159;-66
2024/02/19 06:25:44;;;;;;;42.22;5.03;;;;;;;;;;5017580;28;20132;-66
2024/02/19 06:28:10;;;;;;;29.73;6.13;;;;;;;;;;5014037;28;20050;-66
2024/02/19 06:30:36;;;;;;;34.67;4.88;;;;;;;;;;5034432;28;20083;-66
2024/02/19 06:33:04;;;;;;;35.00;4.82;;;;;;;;;;5021575;28;20152;-66
2024/02/19 06:35:30;;;;;;;27.05;4.97;;;;;;;;;;5023533;28;20045;-66
2024/02/19 06:37:56;;;;;;;26.25;4.90;;;;;;;;;;5021065;28;20044;-66
2024/02/19 06:40:22;;;;;;;35.85;5.03;;;;;;;;;;5024025;28;20738;-66
2024/02/19 06:42:49;;;;;;;35.90;4.82;;;;;;;;;;5028862;28;20113;-66
2024/02/19 06:45:15;;;;;;;31.30;4.95;;;;;;;;;;5028187;28;20067;-65
2024/02/19 06:47:42;;;;;;;38.22;6.30;;;;;;;;;;5031588;28;20053;-65
2024/02/19 06:50:08;;;;;;;24.13;4.55;;;;;;;;;;5036667;28;20080;-66
2024/02/19 06:52:35;;;;;;;42.10;5.57;;;;;;;;;;5025006;28;20148;-66
2024/02/19 06:55:01;;;;;;;36.85;5.38;;;;;;;;;;5026479;28;20055;-66
2024/02/19 06:57:27;;;;;;;26.30;4.53;;;;;;;;;;5026261;28;20067;-66
2024/02/19 06:59:54;;;;;;;33.00;4.85;;;;;;;;;;5029753;28;20048;-66
2024/02/19 07:02:20;;;;;;;27.23;5.15;;;;;;;;;;5028961;28;20040;-65
2024/02/19 07:04:47;;;;;;;22.23;4.35;;;;;;;;;;5031234;28;20416;-65
2024/02/19 07:07:13;;;;;;;26.30;4.13;;;;;;;;;;5034524;28;20505;-65
2024/02/19 07:09:40;;;;;;;27.98;4.68;;;;;;;;;;5030251;28;20041;-66
2024/02/19 07:12:07;;;;;;;27.42;4.55;;;;;;;;;;5029815;28;20065;-66
2024/02/19 07:14:33;;;;;;;31.20;5.40;;;;;;;;;;5032523;28;20049;-66
2024/02/19 07:16:59;;;;;;;26.67;4.47;;;;;;;;;;5032937;28;20096;-66
2024/02/19 07:19:25;;;;;;;35.22;4.82;;;;;;;;;;5026513;28;20084;-66
2024/02/19 07:21:52;;;;;;;24.02;5.93;;;;;;;;;;5034378;28;20103;-66
2024/02/19 07:24:18;;;;;;;37.60;6.45;;;;;;;;;;5037703;28;20045;-66
2024/02/19 07:26:44;;;;;;;27.75;5.28;;;;;;;;;;5027600;28;20106;-65
2024/02/19 07:29:10;;;;;;;29.38;4.43;;;;;;;;;;5036686;28;20053;-66
2024/02/19 07:31:36;;;;;;;32.85;6.45;;;;;;;;;;5015050;28;20048;-66
2024/02/19 07:34:02;;;;;;;29.92;4.97;;;;;;;;;;5020559;28;20516;-66
2024/02/19 07:36:29;;;;;;;34.95;5.45;;;;;;;;;;5022574;28;20098;-66
2024/02/19 07:38:55;;;;;;;32.42;5.57;;;;;;;;;;5025116;28;20042;-67
2024/02/19 07:41:21;;;;;;;33.55;6.28;;;;;;;;;;5024960;28;20038;-66
2024/02/19 07:43:49;;;;;;;36.88;6.22;;;;;;;;;;5023034;28;20168;-66
2024/02/19 07:46:17;;;;;;;31.00;5.20;;;;;;;;;;5023174;28;20148;-68
2024/02/19 07:48:43;;;;;;;30.35;5.38;;;;;;;;;;5021367;28;20520;-67
2024/02/19 07:51:10;;;;;;;29.40;5.28;;;;;;;;;;5016405;28;20046;-67
2024/02/19 07:53:36;;;;;;;30.58;6.15;;;;;;;;;;5023040;28;20525;-67
2024/02/19 07:56:04;;;;;;;51.03;7.55;;;;;;;;;;5023589;28;20045;-67
2024/02/19 07:58:31;;;;;;;41.47;6.20;;;;;;;;;;5026803;28;20049;-67
2024/02/19 08:00:57;;;;;;;31.88;5.32;;;;;;;;;;5018412;28;20038;-67
2024/02/19 08:03:23;;;;;;;33.95;6.72;;;;;;;;;;5012112;28;20056;-67
2024/02/19 08:05:49;;;;;;;38.55;5.82;;;;;;;;;;5022647;28;20038;-67
2024/02/19 08:08:16;;;;;;;36.38;7.32;;;;;;;;;;5021537;28;20080;-67
2024/02/19 08:10:42;;;;;;;46.45;9.05;;;;;;;;;;5014726;28;20050;-67
2024/02/19 08:13:09;;;;;;;27.67;5.93;;;;;;;;;;5041987;28;20050;-67
2024/02/19 08:15:41;;;;;;;29.15;5.55;;;;;;;;;;5022235;28;20068;-67
2024/02/19 08:18:08;;;;;;;29.98;5.70;;;;;;;;;;5023644;28;20481;-67
2024/02/19 08:20:53;;;;;;;34.85;5.70;;;;;;;;;;5020573;28;20046;-67
2024/02/19 08:23:19;;;;;;;34.78;5.72;;;;;;;;;;5026463;28;20077;-67
2024/02/19 08:25:47;;;;;;;38.65;8.00;;;;;;;;;;5025377;28;20037;-66
2024/02/19 08:28:13;;;;;;;34.88;5.53;;;;;;;;;;5028349;28;20488;-67
2024/02/19 08:30:40;;;;;;;33.30;5.80;;;;;;;;;;5031145;28;20068;-67
2024/02/19 08:33:06;;;;;;;31.83;6.35;;;;;;;;;;5027560;28;20049;-66
2024/02/19 08:35:32;;;;;;;39.85;7.18;;;;;;;;;;5027874;28;20045;-67
2024/02/19 08:37:59;;;;;;;26.17;5.80;;;;;;;;;;5026928;28;20059;-67
2024/02/19 08:40:25;;;;;;;35.83;6.53;;;;;;;;;;5018774;28;20045;-67
2024/02/19 08:42:52;;;;;;;34.90;6.72;;;;;;;;;;5027623;28;20037;-66
2024/02/19 08:45:18;;;;;;;40.38;6.45;;;;;;;;;;5027917;28;20098;-66
2024/02/19 08:47:44;;;;;;;37.78;9.55;;;;;;;;;;5027513;28;20574;-66
2024/02/19 08:50:10;;;;;;;42.38;7.82;;;;;;;;;;5029394;28;20065;-66
2024/02/19 08:52:37;;;;;;;34.20;6.15;;;;;;;;;;5028020;28;20045;-66
2024/02/19 08:55:03;;;;;;;27.85;6.68;;;;;;;;;;5029268;28;20524;-66
2024/02/19 08:57:29;;;;;;;24.98;5.43;;;;;;;;;;5028189;28;20067;-66
2024/02/19 08:59:55;;;;;;;40.78;7.07;;;;;;;;;;5030065;28;20369;-76
2024/02/19 09:02:22;;;;;;;34.85;8.18;;;;;;;;;;5003814;28;20093;-67
2024/02/19 09:04:48;;;;;;;29.13;6.47;;;;;;;;;;5018433;28;20366;-67
2024/02/19 09:07:15;;;;;;;26.23;6.00;;;;;;;;;;5018852;28;20094;-66
2024/02/19 09:09:47;;;;;;;34.83;6.53;;;;;;;;;;5018037;28;20119;-67
2024/02/19 09:12:14;;;;;;;31.02;7.53;;;;;;;;;;5019967;28;20057;-66
2024/02/19 09:14:40;;;;;;;28.20;5.32;;;;;;;;;;5025996;28;20052;-66
2024/02/19 09:17:07;;;;;;;29.83;5.30;;;;;;;;;;5024271;28;20061;-66
2024/02/19 09:19:33;;;;;;;29.25;5.85;;;;;;;;;;5025321;28;20516;-66
2024/02/19 09:21:59;;;;;;;29.58;5.63;;;;;;;;;;5023183;28;20057;-66
2024/02/19 09:24:25;;;;;;;22.20;5.30;;;;;;;;;;5007021;28;20132;-66
2024/02/19 09:26:52;;;;;;;29.13;5.53;;;;;;;;;;5004167;28;20149;-67
2024/02/19 09:29:18;;;;;;;26.13;5.80;;;;;;;;;;5020945;28;20581;-66
2024/02/19 09:31:44;;;;;;;23.83;5.90;;;;;;;;;;5024443;28;20140;-66
2024/02/19 09:34:10;;;;;;;25.58;5.13;;;;;;;;;;5026889;28;20046;-67
2024/02/19 09:36:37;;;;;;;22.23;4.93;;;;;;;;;;5022773;28;20055;-66
2024/02/19 09:39:03;;;;;;;33.00;6.22;;;;;;;;;;5023829;28;20132;-66
2024/02/19 09:41:29;;;;;;;29.10;5.80;;;;;;;;;;5028284;28;20034;-67
2024/02/19 09:43:56;;;;;;;22.75;4.82;;;;;;;;;;5024959;28;20068;-67
2024/02/19 09:46:24;;;;;;;25.27;5.43;;;;;;;;;;5021697;28;20136;-66
2024/02/19 09:48:51;;;;;;;22.63;5.13;;;;;;;;;;5023052;28;20111;-66
2024/02/19 09:51:20;;;;;;;26.88;5.63;;;;;;;;;;5020752;28;20153;-66
2024/02/19 09:53:51;;;;;;;25.13;6.30;;;;;;;;;;5030125;28;20045;-66
2024/02/19 09:56:17;;;;;;;20.05;3.92;;;;;;;;;;5022073;28;20462;-66
2024/02/19 09:58:45;;;;;;;23.88;5.55;;;;;;;;;;5020779;28;20553;-66
2024/02/19 10:01:11;;;;;;;22.73;5.85;;;;;;;;;;5021496;28;20088;-66
2024/02/19 10:03:37;;;;;;;21.80;5.28;;;;;;;;;;5021211;28;20096;-66
2024/02/19 10:06:03;;;;;;;33.78;5.55;;;;;;;;;;5025748;28;20045;-66
2024/02/19 10:08:30;;;;;;;22.40;7.07;;;;;;;;;;5028184;28;20405;-66
2024/02/19 10:10:57;;;;;;;22.92;5.05;;;;;;;;;;5027882;28;21349;-66
2024/02/19 10:13:24;;;;;;;27.08;6.65;;;;;;;;;;5024408;28;20041;-66
2024/02/19 10:15:50;;;;;;;25.10;5.95;;;;;;;;;;5028269;28;20076;-66
2024/02/19 10:18:18;;;;;;;26.00;6.13;;;;;;;;;;5032501;28;20115;-66
2024/02/19 10:20:46;;;;;;;21.75;6.03;;;;;;;;;;5026990;28;20489;-66
2024/02/19 10:23:12;;;;;;;20.30;5.22;;;;;;;;;;5026713;28;20060;-66
2024/02/19 10:25:38;;;;;;;29.25;6.00;;;;;;;;;;5027627;28;20045;-66
2024/02/19 10:28:07;;;;;;;22.42;5.47;;;;;;;;;;5026878;28;20053;-66
2024/02/19 10:30:33;;;;;;;32.53;7.43;;;;;;;;;;5026006;28;20103;-66
2024/02/19 10:32:59;;;;;;;24.10;5.78;;;;;;;;;;5026946;28;20384;-66
2024/02/19 10:35:27;;;;;;;20.77;5.13;;;;;;;;;;5027181;28;20041;-66
2024/02/19 10:37:55;;;;;;;21.27;5.43;;;;;;;;;;5024109;28;20354;-65
2024/02/19 10:40:21;;;;;;;24.20;6.00;;;;;;;;;;5020635;28;20462;-66
2024/02/19 10:42:48;;;;;;;28.13;6.55;;;;;;;;;;5021199;28;20064;-65
2024/02/19 10:45:14;;;;;;;28.45;7.28;;;;;;;;;;5022980;28;20056;-66
2024/02/19 10:47:41;;;;;;;28.38;5.85;;;;;;;;;;5023324;28;20041;-66
2024/02/19 10:50:08;;;;;;;21.08;5.72;;;;;;;;;;5023685;28;20050;-66
2024/02/19 10:52:34;;;;;;;20.63;5.57;;;;;;;;;;5006705;28;20413;-65
2024/02/19 10:55:01;;;;;;;29.50;5.20;;;;;;;;;;5025975;28;20037;-66
2024/02/19 10:57:30;;;;;;;24.58;5.93;;;;;;;;;;5019654;28;20057;-66
2024/02/19 11:00:06;;;;;;;28.80;6.60;;;;;;;;;;5021238;28;20099;-66
2024/02/19 11:02:32;;;;;;;24.55;5.70;;;;;;;;;;5022322;28;20037;-66
2024/02/19 11:04:59;;;;;;;25.30;5.22;;;;;;;;;;5025360;28;20113;-66
2024/02/19 11:07:31;;;;;;;27.80;6.32;;;;;;;;;;5028773;28;20431;-66
2024/02/19 11:09:58;;;;;;;18.25;4.72;;;;;;;;;;5034666;28;20133;-66
2024/02/19 11:12:26;;;;;;;22.92;4.97;;;;;;;;;;5025457;28;20041;-66
2024/02/19 11:14:53;;;;;;;23.92;4.85;;;;;;;;;;5022390;28;20042;-66
2024/02/19 11:17:20;;;;;;;21.88;4.50;;;;;;;;;;5023417;28;20053;-65
2024/02/19 11:19:46;;;;;;;16.95;4.60;;;;;;;;;;5023516;28;20528;-65
2024/02/19 11:22:21;;;;;;;26.02;5.32;;;;;;;;;;5016466;28;20048;-66
2024/02/19 11:24:47;;;;;;;26.92;4.97;;;;;;;;;;5023390;28;20049;-66
2024/02/19 11:27:13;;;;;;;25.27;5.60;;;;;;;;;;5024391;28;20103;-67
2024/02/19 11:29:40;;;;;;;24.63;5.30;;;;;;;;;;5024268;28;20345;-67
2024/02/19 11:32:07;;;;;;;20.73;5.10;;;;;;;;;;5021512;28;20049;-67
2024/02/19 11:34:33;;;;;;;33.72;6.43;;;;;;;;;;5021203;28;20049;-67
2024/02/19 11:37:03;;;;;;;21.50;4.70;;;;;;;;;;5021118;28;20052;-67
2024/02/19 11:39:31;;;;;;;16.02;5.20;;;;;;;;;;5020819;28;20049;-67
2024/02/19 11:42:01;;;;;;;25.08;4.97;;;;;;;;;;5020399;28;20052;-67
2024/02/19 11:44:28;;;;;;;25.40;5.20;;;;;;;;;;5017869;28;20049;-66
2024/02/19 11:46:55;;;;;;;22.33;5.50;;;;;;;;;;5016564;28;20053;-66
2024/02/19 11:49:23;;;;;;;25.75;5.10;;;;;;;;;;5015818;28;20046;-66
2024/02/19 11:51:49;;;;;;;23.08;5.35;;;;;;;;;;5015742;28;20077;-66
2024/02/19 11:54:15;;;;;;;27.48;5.40;;;;;;;;;;5014710;28;20045;-67
2024/02/19 11:56:49;;;;;;;28.88;6.20;;;;;;;;;;5018129;28;20489;-66
2024/02/19 11:59:15;;;;;;;;;;;;;;;;;;5022081;28;20061;-66
2024/02/19 12:01:43;;;;;;;24.38;5.57;;;;;;;;;;5015275;28;20295;-66
2024/02/19 12:04:10;;;;;;;24.40;4.95;;;;;;;;;;5018245;28;20047;-66
2024/02/19 12:06:37;;;;;;;32.03;6.78;;;;;;;;;;5017237;28;20057;-66
2024/02/19 12:09:05;;;;;;;29.25;6.18;;;;;;;;;;5015676;28;20065;-66
2024/02/19 12:11:32;;;;;;;24.33;5.50;;;;;;;;;;5013934;28;20057;-67
2024/02/19 12:13:58;;;;;;;24.85;5.43;;;;;;;;;;5016939;28;20110;-66
2024/02/19 12:16:27;;;;;;;24.73;5.55;;;;;;;;;;5013641;28;20038;-66
2024/02/19 12:18:55;;;;;;;19.95;5.10;;;;;;;;;;5015326;28;20045;-66
2024/02/19 12:21:22;;;;;;;19.30;5.40;;;;;;;;;;5023175;28;20131;-66
2024/02/19 12:23:52;;;;;;;30.48;6.68;;;;;;;;;;5020331;28;20060;-67
2024/02/19 12:26:19;;;;;;;24.58;7.25;;;;;;;;;;5021323;28;20156;-66
2024/02/19 12:28:46;;;;;;;17.40;5.47;;;;;;;;;;5006305;28;20270;-67
2024/02/19 12:31:13;;;;;;;27.00;5.47;;;;;;;;;;5023637;28;20046;-66
2024/02/19 12:33:39;;;;;;;32.03;5.63;;;;;;;;;;5027209;28;20045;-66
2024/02/19 12:36:08;;;;;;;27.50;6.07;;;;;;;;;;5025122;28;20112;-67
2024/02/19 12:38:41;;;;;;;23.77;6.07;;;;;;;;;;5025876;28;20493;-67
2024/02/19 12:41:07;;;;;;;29.20;6.20;;;;;;;;;;5023566;28;20038;-67
2024/02/19 12:43:33;;;;;;;22.88;5.60;;;;;;;;;;5026447;28;20033;-67
2024/02/19 12:46:00;;;;;;;21.25;5.25;;;;;;;;;;5024609;28;20496;-67
2024/02/19 12:48:26;;;;;;;26.85;6.82;;;;;;;;;;5026458;28;20037;-67
2024/02/19 12:50:52;;;;;;;27.83;7.38;;;;;;;;;;5027333;28;20058;-67
2024/02/19 12:53:18;;;;;;;33.05;6.82;;;;;;;;;;5025942;28;20060;-67
2024/02/19 12:55:45;;;;;;;30.77;6.35;;;;;;;;;;5025812;28;20049;-67
2024/02/19 12:58:11;;;;;;;22.98;4.80;;;;;;;;;;5026095;28;20057;-67
2024/02/19 13:00:41;;;;;;;22.75;4.88;;;;;;;;;;5022113;28;20389;-67
2024/02/19 13:03:07;;;;;;;31.60;7.63;;;;;;;;;;5025548;28;20045;-67
2024/02/19 13:05:33;;;;;;;22.70;5.22;;;;;;;;;;5023827;28;20545;-67
2024/02/19 13:08:00;;;;;;;25.23;6.65;;;;;;;;;;5030183;28;20049;-67
2024/02/19 13:10:26;;;;;;;25.25;5.53;;;;;;;;;;5023339;28;20045;-67
2024/02/19 13:12:52;;;;;;;32.08;5.88;;;;;;;;;;5022963;28;20037;-67
2024/02/19 13:15:19;;;;;;;27.45;5.50;;;;;;;;;;5028885;28;20444;-67
2024/02/19 13:17:45;;;;;;;27.92;6.50;;;;;;;;;;5043195;28;20050;-67
2024/02/19 13:20:14;;;;;;;21.38;5.65;;;;;;;;;;5008489;28;20049;-67
2024/02/19 13:22:40;;;;;;;31.55;6.03;;;;;;;;;;5024970;28;20060;-67
2024/02/19 13:25:08;;;;;;;25.90;5.63;;;;;;;;;;5026365;28;20046;-67
2024/02/19 13:27:35;;;;;;;21.15;5.78;;;;;;;;;;5030178;28;20452;-67
2024/02/19 13:30:01;;;;;;;26.10;5.60;;;;;;;;;;5026069;28;20046;-67
2024/02/19 13:32:27;;;;;;;21.38;5.03;;;;;;;;;;5028408;28;20103;-67
2024/02/19 13:34:53;;;;;;;27.65;6.00;;;;;;;;;;5028694;28;20137;-67
2024/02/19 13:37:21;;;;;;;30.88;6.82;;;;;;;;;;5024554;28;20444;-67
2024/02/19 13:39:47;;;;;;;26.10;5.50;;;;;;;;;;5022681;28;20062;-67
2024/02/19 13:42:13;;;;;;;31.10;6.38;;;;;;;;;;5023637;28;20041;-67
2024/02/19 13:44:40;;;;;;;19.90;4.97;;;;;;;;;;5022433;28;20495;-67
2024/02/19 13:47:06;;;;;;;27.83;6.55;;;;;;;;;;5025461;28;20037;-67
2024/02/19 13:49:32;;;;;;;23.88;6.03;;;;;;;;;;5036857;28;20045;-67
2024/02/19 13:51:58;;;;;;;25.92;5.60;;;;;;;;;;5031997;28;20045;-67
2024/02/19 13:54:24;;;;;;;22.17;5.32;;;;;;;;;;5034289;28;20064;-67
2024/02/19 13:56:53;;;;;;;21.67;5.50;;;;;;;;;;5035086;28;20510;-67
2024/02/19 13:59:19;;;;;;;18.55;5.30;;;;;;;;;;5036143;28;20053;-67
2024/02/19 14:01:45;;;;;;;25.52;6.20;;;;;;;;;;5025603;28;20501;-67
2024/02/19 14:04:11;;;;;;;20.17;5.75;;;;;;;;;;5022885;28;21366;-66
2024/02/19 14:06:38;;;;;;;20.52;5.15;;;;;;;;;;5026164;28;20045;-65
2024/02/19 14:09:04;;;;;;;22.33;5.60;;;;;;;;;;5019634;28;20057;-67
2024/02/19 14:11:30;;;;;;;36.17;5.55;;;;;;;;;;5020512;28;20041;-67
2024/02/19 14:13:57;;;;;;;18.85;4.63;;;;;;;;;;5015608;28;20053;-67
2024/02/19 14:16:23;;;;;;;20.00;5.53;;;;;;;;;;5020110;28;20044;-67
2024/02/19 14:18:49;;;;;;;23.80;6.03;;;;;;;;;;5022492;28;20053;-67
2024/02/19 14:21:16;;;;;;;24.38;4.72;;;;;;;;;;5021446;28;20064;-67
2024/02/19 14:23:42;;;;;;;25.75;5.13;;;;;;;;;;5021767;28;20136;-67
2024/02/19 14:26:08;;;;;;;22.90;4.82;;;;;;;;;;5026746;28;20134;-67